createdAt,value
2018-09-29T00:00:42.211Z,11.70
2018-09-29T00:03:10.320Z,11.60
2018-09-29T00:05:38.251Z,11.60
2018-09-29T00:08:05.992Z,11.60
2018-09-29T00:10:33.655Z,11.60
2018-09-29T00:13:01.297Z,11.50
2018-09-29T00:15:28.938Z,11.50
2018-09-29T00:17:56.636Z,11.50
2018-09-29T00:20:24.488Z,11.50
2018-09-29T00:22:52.236Z,11.40
2018-09-29T00:25:19.920Z,11.40
2018-09-29T00:27:47.532Z,11.40
2018-09-29T00:30:15.412Z,11.30
2018-09-29T00:32:43.088Z,11.30
2018-09-29T00:35:10.996Z,11.20
2018-09-29T00:37:38.645Z,11.20
2018-09-29T00:40:06.444Z,11.20
2018-09-29T00:42:34.103Z,11.20
2018-09-29T00:45:02.101Z,11.20
2018-09-29T00:47:29.753Z,11.20
2018-09-29T00:49:57.359Z,11.10
2018-09-29T00:52:25.280Z,11.10
2018-09-29T00:54:53.126Z,11.10
2018-09-29T00:57:20.869Z,11.10
2018-09-29T00:59:48.512Z,11.10
2018-09-29T01:02:16.150Z,11.10
2018-09-29T01:04:43.784Z,11.10
2018-09-29T01:07:11.696Z,11.10
2018-09-29T01:09:39.328Z,11.10
2018-09-29T01:12:06.962Z,11.10
2018-09-29T01:14:34.579Z,11.10
2018-09-29T01:17:02.223Z,11.10
2018-09-29T01:19:29.904Z,11.00
2018-09-29T01:21:57.651Z,11.00
2018-09-29T01:24:25.305Z,11.10
2018-09-29T01:26:52.924Z,11.00
2018-09-29T01:29:20.535Z,11.00
2018-09-29T01:31:48.208Z,11.00
2018-09-29T01:39:09.248Z,11.00
2018-09-29T01:41:36.899Z,11.00
2018-09-29T01:44:04.541Z,11.00
2018-09-29T01:46:32.196Z,10.90
2018-09-29T01:48:59.844Z,10.90
2018-09-29T01:51:27.460Z,10.90
2018-09-29T01:53:55.281Z,10.90
2018-09-29T01:56:22.928Z,10.90
2018-09-29T01:58:50.532Z,10.90
2018-09-29T02:01:18.177Z,10.90
2018-09-29T02:03:45.772Z,10.80
2018-09-29T02:06:13.434Z,10.80
2018-09-29T02:08:41.069Z,10.80
2018-09-29T02:11:08.740Z,10.70
2018-09-29T02:13:36.365Z,10.70
2018-09-29T02:16:04.009Z,10.60
2018-09-29T02:18:31.611Z,10.60
2018-09-29T02:20:59.252Z,10.60
2018-09-29T02:23:26.897Z,10.50
2018-09-29T02:25:54.609Z,10.50
2018-09-29T02:28:22.205Z,10.50
2018-09-29T02:30:49.836Z,10.40
2018-09-29T02:33:17.444Z,10.40
2018-09-29T02:35:45.164Z,10.40
2018-09-29T02:38:12.790Z,10.30
2018-09-29T02:40:40.465Z,10.20
2018-09-29T02:43:08.348Z,10.20
2018-09-29T02:45:36.107Z,10.20
2018-09-29T02:48:03.751Z,10.20
2018-09-29T02:50:31.401Z,10.10
2018-09-29T02:52:59.044Z,10.10
2018-09-29T02:55:26.632Z,10.00
2018-09-29T02:57:54.284Z,10.00
2018-09-29T03:00:21.899Z,9.90
2018-09-29T03:02:49.520Z,9.90
2018-09-29T03:05:17.257Z,9.90
2018-09-29T03:07:44.985Z,9.90
2018-09-29T03:10:12.840Z,9.80
2018-09-29T03:12:40.477Z,9.80
2018-09-29T03:15:08.146Z,9.70
2018-09-29T03:17:36.065Z,9.70
2018-09-29T03:20:03.805Z,9.70
2018-09-29T03:22:31.447Z,9.70
2018-09-29T03:24:59.089Z,9.60
2018-09-29T03:27:26.742Z,9.60
2018-09-29T03:29:54.569Z,9.60
2018-09-29T03:32:22.216Z,9.60
2018-09-29T03:34:49.865Z,9.60
2018-09-29T03:37:17.765Z,9.60
2018-09-29T03:39:45.371Z,9.60
2018-09-29T03:42:13.349Z,9.50
2018-09-29T03:44:41.204Z,9.50
2018-09-29T03:47:08.839Z,9.50
2018-09-29T03:49:36.459Z,9.50
2018-09-29T03:52:04.151Z,9.50
2018-09-29T03:54:32.035Z,9.40
2018-09-29T03:56:59.913Z,9.40
2018-09-29T03:59:27.573Z,9.30
2018-09-29T04:01:55.216Z,9.30
2018-09-29T04:04:22.898Z,9.30
2018-09-29T04:06:50.916Z,9.20
2018-09-29T04:09:18.692Z,9.10
2018-09-29T04:11:46.308Z,9.10
2018-09-29T04:14:13.924Z,9.10
2018-09-29T04:16:41.609Z,9.10
2018-09-29T04:19:09.413Z,9.10
2018-09-29T04:21:52.761Z,9.10
2018-09-29T04:24:20.583Z,9.00
2018-09-29T04:26:48.239Z,9.00
2018-09-29T04:29:16.704Z,9.00
2018-09-29T04:31:44.544Z,8.90
2018-09-29T04:34:12.995Z,8.90
2018-09-29T04:36:40.931Z,8.90
2018-09-29T04:39:10.808Z,8.80
2018-09-29T04:41:38.885Z,8.80
2018-09-29T04:44:06.612Z,8.80
2018-09-29T04:46:34.282Z,8.70
2018-09-29T04:49:02.048Z,8.70
2018-09-29T04:51:29.808Z,8.70
2018-09-29T04:53:57.457Z,8.70
2018-09-29T04:56:25.096Z,8.70
2018-09-29T04:58:52.752Z,8.70
2018-09-29T05:01:20.459Z,8.70
2018-09-29T05:03:48.113Z,8.70
2018-09-29T05:06:16.170Z,8.60
2018-09-29T05:08:43.824Z,8.60
2018-09-29T05:11:11.484Z,8.50
2018-09-29T05:13:39.288Z,8.50
2018-09-29T05:16:07.201Z,8.50
2018-09-29T05:18:34.980Z,8.40
2018-09-29T05:21:02.641Z,8.50
2018-09-29T05:23:30.553Z,8.50
2018-09-29T05:25:58.495Z,8.40
2018-09-29T05:28:26.167Z,8.40
2018-09-29T05:30:54.429Z,8.40
2018-09-29T05:33:22.076Z,8.30
2018-09-29T05:35:49.741Z,8.40
2018-09-29T05:38:17.463Z,8.30
2018-09-29T05:40:45.868Z,8.30
2018-09-29T05:43:13.659Z,8.20
2018-09-29T05:45:41.612Z,8.30
2018-09-29T05:48:09.528Z,8.30
2018-09-29T05:50:37.329Z,8.20
2018-09-29T05:53:05.125Z,8.20
2018-09-29T05:55:32.966Z,8.20
2018-09-29T05:58:00.673Z,8.20
2018-09-29T06:00:28.387Z,8.20
2018-09-29T06:02:56.069Z,8.20
2018-09-29T06:05:23.765Z,8.20
2018-09-29T06:07:51.421Z,8.20
2018-09-29T06:10:19.185Z,8.20
2018-09-29T06:12:46.881Z,8.20
2018-09-29T06:15:14.801Z,8.20
2018-09-29T06:17:42.465Z,8.20
2018-09-29T06:20:10.307Z,8.20
2018-09-29T06:22:38.476Z,8.20
2018-09-29T06:25:06.160Z,8.20
2018-09-29T06:27:33.854Z,8.20
2018-09-29T06:30:01.591Z,8.20
2018-09-29T06:32:29.404Z,8.20
2018-09-29T06:34:57.656Z,8.20
2018-09-29T06:37:25.605Z,8.20
2018-09-29T06:39:53.329Z,8.20
2018-09-29T06:42:20.990Z,8.30
2018-09-29T06:44:48.704Z,8.30
2018-09-29T06:47:16.367Z,8.30
2018-09-29T06:49:44.037Z,8.30
2018-09-29T06:52:11.640Z,8.30
2018-09-29T06:54:40.000Z,8.40
2018-09-29T06:57:07.674Z,8.40
2018-09-29T06:59:35.426Z,8.40
2018-09-29T07:02:03.133Z,8.40
2018-09-29T07:04:30.790Z,8.40
2018-09-29T07:06:58.361Z,8.50
2018-09-29T07:09:26.108Z,8.40
2018-09-29T07:11:53.694Z,8.50
2018-09-29T07:14:21.324Z,8.60
2018-09-29T07:16:49.126Z,8.60
2018-09-29T07:19:16.836Z,8.60
2018-09-29T07:21:44.504Z,8.70
2018-09-29T07:24:12.041Z,8.70
2018-09-29T07:26:39.648Z,8.70
2018-09-29T07:29:07.491Z,8.70
2018-09-29T07:31:35.254Z,8.70
2018-09-29T07:34:02.869Z,8.80
2018-09-29T07:36:30.465Z,8.90
2018-09-29T07:38:58.097Z,8.90
2018-09-29T07:41:25.956Z,8.90
2018-09-29T07:43:53.585Z,8.90
2018-09-29T07:46:21.165Z,9.00
2018-09-29T07:48:48.746Z,9.10
2018-09-29T07:51:16.507Z,9.20
2018-09-29T07:53:44.786Z,9.20
2018-09-29T07:56:12.419Z,9.30
2018-09-29T07:58:40.251Z,9.30
2018-09-29T08:01:07.908Z,9.40
2018-09-29T08:03:35.624Z,9.40
2018-09-29T08:06:03.340Z,9.50
2018-09-29T08:08:31.025Z,9.50
2018-09-29T08:10:58.697Z,9.50
2018-09-29T08:13:26.383Z,9.50
2018-09-29T08:15:54.400Z,9.60
2018-09-29T08:18:22.142Z,9.60
2018-09-29T08:20:49.825Z,9.70
2018-09-29T08:23:17.732Z,9.70
2018-09-29T08:25:45.457Z,9.70
2018-09-29T08:28:13.373Z,9.80
2018-09-29T08:30:41.023Z,9.90
2018-09-29T08:33:08.889Z,9.90
2018-09-29T08:35:36.637Z,9.90
2018-09-29T08:38:04.625Z,10.10
2018-09-29T08:40:32.382Z,10.10
2018-09-29T08:43:00.165Z,10.20
2018-09-29T08:45:27.864Z,10.30
2018-09-29T08:47:56.189Z,10.30
2018-09-29T08:50:24.611Z,10.40
2018-09-29T08:52:52.324Z,10.50
2018-09-29T08:55:20.026Z,10.70
2018-09-29T08:57:47.673Z,10.70
2018-09-29T09:00:15.429Z,11.00
2018-09-29T09:02:43.088Z,11.10
2018-09-29T09:05:10.785Z,11.20
2018-09-29T09:07:38.577Z,11.30
2018-09-29T09:10:06.425Z,11.40
2018-09-29T09:12:34.112Z,11.40
2018-09-29T09:15:01.777Z,11.50
2018-09-29T09:17:29.407Z,11.70
2018-09-29T09:19:57.176Z,11.80
2018-09-29T09:22:24.821Z,11.80
2018-09-29T09:24:52.509Z,11.90
2018-09-29T09:27:20.179Z,12.10
2018-09-29T09:29:47.891Z,12.10
2018-09-29T09:32:15.520Z,12.20
2018-09-29T09:34:43.156Z,12.30
2018-09-29T09:37:10.904Z,12.40
2018-09-29T09:39:38.544Z,12.50
2018-09-29T09:42:06.204Z,12.60
2018-09-29T09:44:33.956Z,12.60
2018-09-29T09:47:01.598Z,12.70
2018-09-29T09:49:29.298Z,13.00
2018-09-29T09:51:56.945Z,13.30
2018-09-29T09:54:24.610Z,13.70
2018-09-29T09:56:52.190Z,13.90
2018-09-29T09:59:19.866Z,13.90
2018-09-29T10:01:53.128Z,14.10
2018-09-29T10:04:20.850Z,14.30
2018-09-29T10:06:48.465Z,14.40
2018-09-29T10:09:16.065Z,14.40
2018-09-29T10:11:43.955Z,14.60
2018-09-29T10:14:11.647Z,14.80
2018-09-29T10:16:39.568Z,14.80
2018-09-29T10:19:07.151Z,14.80
2018-09-29T10:21:35.255Z,14.80
2018-09-29T10:24:03.040Z,14.90
2018-09-29T10:26:30.656Z,14.80
2018-09-29T10:28:59.760Z,15.00
2018-09-29T10:31:27.372Z,15.20
2018-09-29T10:33:55.550Z,15.40
2018-09-29T10:36:23.378Z,15.50
2018-09-29T10:38:51.247Z,15.60
2018-09-29T10:41:18.988Z,15.50
2018-09-29T10:43:46.589Z,15.60
2018-09-29T10:46:14.424Z,15.80
2018-09-29T10:48:42.178Z,16.00
2018-09-29T10:51:16.526Z,16.00
2018-09-29T10:53:47.131Z,16.10
2018-09-29T10:56:16.179Z,16.10
2018-09-29T10:59:08.653Z,16.10
2018-09-29T11:01:37.246Z,16.20
2018-09-29T11:08:00.118Z,16.50
2018-09-29T11:13:09.693Z,16.90
2018-09-29T11:15:42.181Z,17.10
2018-09-29T11:18:15.963Z,17.10
2018-09-29T11:20:43.648Z,17.00
2018-09-29T11:23:46.873Z,16.80
2018-09-29T11:29:09.126Z,17.20
2018-09-29T11:31:36.787Z,17.20
2018-09-29T11:34:04.664Z,17.20
2018-09-29T11:36:32.347Z,17.30
2018-09-29T11:38:59.904Z,17.40
2018-09-29T11:41:27.539Z,17.40
2018-09-29T11:43:55.146Z,17.70
2018-09-29T11:46:22.755Z,17.80
2018-09-29T11:48:50.314Z,17.60
2018-09-29T11:51:18.528Z,17.50
2018-09-29T11:53:46.690Z,17.60
2018-09-29T11:56:14.383Z,17.40
2018-09-29T11:58:41.969Z,17.30
2018-09-29T12:01:09.701Z,17.20
2018-09-29T12:03:37.361Z,17.20
2018-09-29T12:06:05.137Z,17.00
2018-09-29T12:08:32.669Z,17.00
2018-09-29T12:11:00.584Z,17.10
2018-09-29T12:13:28.216Z,16.90
2018-09-29T12:15:55.905Z,16.90
2018-09-29T12:18:23.586Z,16.80
2018-09-29T12:20:51.431Z,16.80
2018-09-29T12:23:19.151Z,16.80
2018-09-29T12:25:46.901Z,16.70
2018-09-29T12:28:15.086Z,16.80
2018-09-29T12:30:42.809Z,16.70
2018-09-29T12:33:10.522Z,16.80
2018-09-29T12:35:38.188Z,16.80
2018-09-29T12:38:05.840Z,16.70
2018-09-29T12:40:33.497Z,16.70
2018-09-29T12:43:01.162Z,16.70
2018-09-29T12:45:28.817Z,16.60
2018-09-29T12:47:56.742Z,16.40
2018-09-29T12:50:24.609Z,16.50
2018-09-29T12:52:52.292Z,16.70
2018-09-29T12:55:20.206Z,16.70
2018-09-29T12:57:47.936Z,16.70
2018-09-29T13:00:15.664Z,16.70
2018-09-29T13:02:43.279Z,16.70
2018-09-29T13:05:10.936Z,16.70
2018-09-29T13:07:38.580Z,16.60
2018-09-29T13:10:06.229Z,16.60
2018-09-29T13:12:33.907Z,16.60
2018-09-29T13:15:01.505Z,16.60
2018-09-29T13:17:31.773Z,16.70
2018-09-29T13:19:59.453Z,16.70
2018-09-29T13:22:27.096Z,16.80
2018-09-29T13:24:54.737Z,16.80
2018-09-29T13:27:29.026Z,16.80
2018-09-29T13:29:56.960Z,16.80
2018-09-29T13:32:24.948Z,16.80
2018-09-29T13:34:52.679Z,16.90
2018-09-29T13:37:20.432Z,16.90
2018-09-29T13:39:48.152Z,16.90
2018-09-29T13:42:15.780Z,16.80
2018-09-29T13:44:43.640Z,16.80
2018-09-29T13:47:11.558Z,16.90
2018-09-29T13:49:39.247Z,16.90
2018-09-29T13:52:06.823Z,16.90
2018-09-29T13:54:34.495Z,16.70
2018-09-29T13:57:02.089Z,16.80
2018-09-29T13:59:29.704Z,16.90
2018-09-29T14:01:57.255Z,16.90
2018-09-29T14:04:24.891Z,16.80
2018-09-29T14:06:52.763Z,16.70
2018-09-29T14:09:20.724Z,16.80
2018-09-29T14:11:48.601Z,16.80
2018-09-29T14:14:16.324Z,16.80
2018-09-29T14:16:43.877Z,16.80
2018-09-29T14:19:11.479Z,16.70
2018-09-29T14:21:40.002Z,16.70
2018-09-29T14:24:07.919Z,16.70
2018-09-29T14:26:35.596Z,16.70
2018-09-29T14:29:03.241Z,16.80
2018-09-29T14:31:31.625Z,16.80
2018-09-29T14:34:00.416Z,16.80
2018-09-29T14:36:28.095Z,16.80
2018-09-29T14:38:55.769Z,16.90
2018-09-29T14:41:23.424Z,16.90
2018-09-29T14:43:51.128Z,16.90
2018-09-29T14:46:18.847Z,16.70
2018-09-29T14:48:46.596Z,16.60
2018-09-29T14:51:14.222Z,16.70
2018-09-29T14:53:42.051Z,16.60
2018-09-29T14:56:09.708Z,16.60
2018-09-29T14:58:38.036Z,16.70
2018-09-29T15:01:06.028Z,16.70
2018-09-29T15:03:33.744Z,16.60
2018-09-29T15:06:01.409Z,16.60
2018-09-29T15:08:29.136Z,16.60
2018-09-29T15:10:56.809Z,16.50
2018-09-29T15:13:24.716Z,16.60
2018-09-29T15:15:52.432Z,16.60
2018-09-29T15:18:20.170Z,16.60
2018-09-29T15:20:47.876Z,16.50
2018-09-29T15:23:15.503Z,16.50
2018-09-29T15:25:43.177Z,16.50
2018-09-29T15:28:11.106Z,16.50
2018-09-29T15:30:39.140Z,16.50
2018-09-29T15:33:06.803Z,16.40
2018-09-29T15:35:34.859Z,16.40
2018-09-29T15:38:05.668Z,16.40
2018-09-29T15:40:33.403Z,16.30
2018-09-29T15:43:01.601Z,16.30
2018-09-29T15:45:31.519Z,16.20
2018-09-29T15:47:59.232Z,16.20
2018-09-29T15:50:27.029Z,16.20
2018-09-29T15:52:54.796Z,16.20
2018-09-29T15:55:22.885Z,16.20
2018-09-29T15:57:51.481Z,16.10
2018-09-29T16:00:19.593Z,16.10
2018-09-29T16:02:47.258Z,16.10
2018-09-29T16:05:15.002Z,16.00
2018-09-29T16:07:43.824Z,16.00
2018-09-29T16:10:11.803Z,16.00
2018-09-29T16:12:39.373Z,15.90
2018-09-29T16:15:07.670Z,15.90
2018-09-29T16:17:35.240Z,15.80
2018-09-29T16:20:02.900Z,15.90
2018-09-29T16:22:30.456Z,15.90
2018-09-29T16:24:58.067Z,15.80
2018-09-29T16:27:26.135Z,15.80
2018-09-29T16:29:53.935Z,15.70
2018-09-29T16:32:21.535Z,15.70
2018-09-29T16:34:54.538Z,15.60
2018-09-29T16:37:22.204Z,15.60
2018-09-29T16:39:50.073Z,15.60
2018-09-29T16:42:18.162Z,15.50
2018-09-29T16:44:45.848Z,15.50
2018-09-29T16:47:16.013Z,15.40
2018-09-29T16:49:43.689Z,15.40
2018-09-29T16:52:11.395Z,15.30
2018-09-29T16:54:39.024Z,15.30
2018-09-29T16:57:06.702Z,15.30
2018-09-29T16:59:34.367Z,15.20
2018-09-29T17:02:02.388Z,15.20
2018-09-29T17:04:30.267Z,15.10
2018-09-29T17:06:57.875Z,15.10
2018-09-29T17:09:25.554Z,15.10
2018-09-29T17:11:53.610Z,15.00
2018-09-29T17:14:22.216Z,15.00
2018-09-29T17:16:50.393Z,14.90
2018-09-29T17:22:07.148Z,14.70
2018-09-29T17:24:34.860Z,14.70
2018-09-29T17:27:03.536Z,14.60
2018-09-29T17:29:31.271Z,14.60
2018-09-29T17:31:59.058Z,14.60
2018-09-29T17:34:27.437Z,14.60
2018-09-29T17:36:55.139Z,14.50
2018-09-29T17:39:22.854Z,14.50
2018-09-29T17:41:50.590Z,14.40
2018-09-29T17:44:18.287Z,14.40
2018-09-29T17:46:45.964Z,14.30
2018-09-29T17:49:13.613Z,14.30
2018-09-29T17:51:41.449Z,14.20
2018-09-29T17:54:09.112Z,14.10
2018-09-29T17:56:36.763Z,14.10
2018-09-29T17:59:04.517Z,14.10
2018-09-29T18:01:32.251Z,14.00
2018-09-29T18:04:00.042Z,13.90
2018-09-29T18:06:28.004Z,13.90
2018-09-29T18:08:55.673Z,13.90
2018-09-29T18:11:23.395Z,13.80
2018-09-29T18:13:51.154Z,13.80
2018-09-29T18:16:18.868Z,13.70
2018-09-29T18:18:46.549Z,13.70
2018-09-29T18:21:14.488Z,13.60
2018-09-29T18:23:42.132Z,13.50
2018-09-29T18:26:09.889Z,13.40
2018-09-29T18:28:37.620Z,13.30
2018-09-29T18:31:05.320Z,13.20
2018-09-29T18:33:32.964Z,13.10
2018-09-29T18:36:00.644Z,13.10
2018-09-29T18:38:28.436Z,13.00
2018-09-29T18:40:56.100Z,13.00
2018-09-29T18:43:23.875Z,12.90
2018-09-29T18:45:51.508Z,12.90
2018-09-29T18:48:19.526Z,12.90
2018-09-29T18:50:47.261Z,12.70
2018-09-29T18:53:15.017Z,12.60
2018-09-29T18:55:42.744Z,12.50
2018-09-29T18:58:10.464Z,12.50
2018-09-29T19:00:38.196Z,12.40
2018-09-29T19:03:06.378Z,12.40
2018-09-29T19:05:34.049Z,12.30
2018-09-29T19:08:01.794Z,12.30
2018-09-29T19:10:29.548Z,12.30
2018-09-29T19:12:57.364Z,12.20
2018-09-29T19:15:25.308Z,12.10
2018-09-29T19:17:53.229Z,11.90
2018-09-29T19:20:20.882Z,11.80
2018-09-29T19:22:48.649Z,11.60
2018-09-29T19:25:16.308Z,11.50
2018-09-29T19:27:44.008Z,11.50
2018-09-29T19:30:11.704Z,11.60
2018-09-29T19:32:39.410Z,11.50
2018-09-29T19:35:07.173Z,11.30
2018-09-29T19:37:34.856Z,11.30
2018-09-29T19:40:02.517Z,11.20
2018-09-29T19:42:30.166Z,11.10
2018-09-29T19:44:57.981Z,10.90
2018-09-29T19:47:32.456Z,10.80
2018-09-29T19:50:00.102Z,10.70
2018-09-29T19:52:27.768Z,10.60
2018-09-29T19:54:55.384Z,10.50
2018-09-29T19:57:23.093Z,10.40
2018-09-29T19:59:50.768Z,10.30
2018-09-29T20:02:18.442Z,10.30
2018-09-29T20:04:46.098Z,10.20
2018-09-29T20:07:13.720Z,10.00
2018-09-29T20:09:41.344Z,10.00
2018-09-29T20:12:09.031Z,9.90
2018-09-29T20:14:36.759Z,9.90
2018-09-29T20:17:04.436Z,9.90
2018-09-29T20:19:32.149Z,9.90
2018-09-29T20:21:59.856Z,9.80
2018-09-29T20:24:27.545Z,9.70
2018-09-29T20:26:55.204Z,9.60
2018-09-29T20:29:22.860Z,9.50
2018-09-29T20:31:50.876Z,9.40
2018-09-29T20:34:18.591Z,9.30
2018-09-29T20:36:46.280Z,9.30
2018-09-29T20:39:13.962Z,9.20
2018-09-29T20:41:42.480Z,9.10
2018-09-29T20:44:10.652Z,9.00
2018-09-29T20:46:38.342Z,8.90
2018-09-29T20:49:07.025Z,8.90
2018-09-29T20:51:34.692Z,8.80
2018-09-29T20:54:02.677Z,8.70
2018-09-29T20:56:30.408Z,8.70
2018-09-29T20:58:58.346Z,8.70
2018-09-29T21:01:26.109Z,8.70
2018-09-29T21:03:53.800Z,8.80
2018-09-29T21:06:21.489Z,8.60
2018-09-29T21:08:49.176Z,8.50
2018-09-29T21:11:16.872Z,8.40
2018-09-29T21:13:44.566Z,8.40
2018-09-29T21:16:12.199Z,8.30
2018-09-29T21:18:39.852Z,8.30
2018-09-29T21:21:07.715Z,8.10
2018-09-29T21:23:35.770Z,8.00
2018-09-29T21:26:03.439Z,8.00
2018-09-29T21:28:31.692Z,8.00
2018-09-29T21:30:59.388Z,7.90
2018-09-29T21:33:27.064Z,7.90
2018-09-29T21:35:54.753Z,7.80
2018-09-29T21:38:22.698Z,7.80
2018-09-29T21:40:50.372Z,7.70
2018-09-29T21:43:18.012Z,7.70
2018-09-29T21:45:45.676Z,7.70
2018-09-29T21:48:13.293Z,7.80
2018-09-29T21:50:40.953Z,7.70
2018-09-29T21:53:08.565Z,7.50
2018-09-29T21:55:36.733Z,7.50
2018-09-29T21:58:04.640Z,7.40
2018-09-29T22:00:37.866Z,7.30
2018-09-29T22:03:05.664Z,7.20
2018-09-29T22:05:33.336Z,7.20
2018-09-29T22:08:01.029Z,7.10
2018-09-29T22:10:28.841Z,7.10
2018-09-29T22:12:56.486Z,7.00
2018-09-29T22:15:24.225Z,7.00
2018-09-29T22:17:51.942Z,6.90
2018-09-29T22:20:19.668Z,6.80
2018-09-29T22:22:47.432Z,6.80
2018-09-29T22:25:15.092Z,6.80
2018-09-29T22:27:43.001Z,6.80
2018-09-29T22:30:10.729Z,6.70
2018-09-29T22:32:38.424Z,6.70
2018-09-29T22:35:06.194Z,6.70
2018-09-29T22:37:33.907Z,6.80
2018-09-29T22:40:01.812Z,6.70
2018-09-29T22:42:29.508Z,6.70
2018-09-29T22:44:57.461Z,6.50
2018-09-29T22:47:25.409Z,6.40
2018-09-29T22:49:53.296Z,6.30
2018-09-29T22:52:21.160Z,6.30
2018-09-29T22:54:49.051Z,6.30
2018-09-29T22:57:16.746Z,6.30
2018-09-29T22:59:44.392Z,6.40
2018-09-29T23:02:12.127Z,6.30
2018-09-29T23:04:39.818Z,6.20
2018-09-29T23:07:07.762Z,6.20
2018-09-29T23:09:35.461Z,6.20
2018-09-29T23:12:03.401Z,6.30
2018-09-29T23:14:31.073Z,6.30
2018-09-29T23:16:58.759Z,6.10
2018-09-29T23:19:26.424Z,6.00
2018-09-29T23:21:54.121Z,5.90
2018-09-29T23:24:21.821Z,5.80
2018-09-29T23:26:49.650Z,5.80
2018-09-29T23:29:17.663Z,5.80
2018-09-29T23:31:45.381Z,5.70
2018-09-29T23:34:13.022Z,5.60
2018-09-29T23:36:40.700Z,5.60
2018-09-29T23:39:09.116Z,5.60
2018-09-29T23:41:36.833Z,5.50
2018-09-29T23:44:04.909Z,5.50
2018-09-29T23:46:32.794Z,5.40
2018-09-29T23:49:00.584Z,5.40
2018-09-29T23:51:28.382Z,5.30
2018-09-29T23:53:56.006Z,5.30
2018-09-29T23:56:23.669Z,5.20
2018-09-29T23:58:51.356Z,5.20
